sensor_id;sensor_type;location;lat;lon;timestamp;P1;durP1;ratioP1;P2;durP2;ratioP2
23561;SDS011;11959;49.418;8.728;2023-10-31T00:01:20;3.67;;;2.50;;
23561;SDS011;11959;49.418;8.728;2023-10-31T00:03:46;5.20;;;2.38;;
23561;SDS011;11959;49.418;8.728;2023-10-31T00:06:12;4.00;;;2.25;;
23561;SDS011;11959;49.418;8.728;2023-10-31T00:08:37;4.38;;;2.70;;
23561;SDS011;11959;49.418;8.728;2023-10-31T00:11:03;2.95;;;1.70;;
23561;SDS011;11959;49.418;8.728;2023-10-31T00:13:29;2.60;;;1.20;;
23561;SDS011;11959;49.418;8.728;2023-10-31T00:15:54;2.50;;;1.00;;
23561;SDS011;11959;49.418;8.728;2023-10-31T00:18:20;1.52;;;0.80;;
23561;SDS011;11959;49.418;8.728;2023-10-31T00:20:46;1.38;;;0.70;;
23561;SDS011;11959;49.418;8.728;2023-10-31T00:23:12;2.85;;;0.60;;
23561;SDS011;11959;49.418;8.728;2023-10-31T00:25:37;1.38;;;0.70;;
23561;SDS011;11959;49.418;8.728;2023-10-31T00:28:03;2.83;;;0.60;;
23561;SDS011;11959;49.418;8.728;2023-10-31T00:30:29;1.60;;;0.50;;
23561;SDS011;11959;49.418;8.728;2023-10-31T00:32:54;1.35;;;0.50;;
23561;SDS011;11959;49.418;8.728;2023-10-31T00:35:20;1.30;;;0.52;;
23561;SDS011;11959;49.418;8.728;2023-10-31T00:37:46;1.58;;;0.65;;
23561;SDS011;11959;49.418;8.728;2023-10-31T00:40:11;1.20;;;0.50;;
23561;SDS011;11959;49.418;8.728;2023-10-31T00:42:37;1.40;;;0.50;;
23561;SDS011;11959;49.418;8.728;2023-10-31T00:45:05;1.02;;;0.50;;
23561;SDS011;11959;49.418;8.728;2023-10-31T00:47:32;2.78;;;0.50;;
23561;SDS011;11959;49.418;8.728;2023-10-31T00:49:58;1.17;;;0.57;;
23561;SDS011;11959;49.418;8.728;2023-10-31T00:52:23;0.65;;;0.50;;
23561;SDS011;11959;49.418;8.728;2023-10-31T00:54:49;0.85;;;0.50;;
23561;SDS011;11959;49.418;8.728;2023-10-31T00:57:15;0.90;;;0.50;;
23561;SDS011;11959;49.418;8.728;2023-10-31T00:59:41;1.13;;;0.55;;
23561;SDS011;11959;49.418;8.728;2023-10-31T01:02:06;1.30;;;0.57;;
23561;SDS011;11959;49.418;8.728;2023-10-31T01:04:32;2.97;;;0.50;;
23561;SDS011;11959;49.418;8.728;2023-10-31T01:06:57;0.60;;;0.50;;
23561;SDS011;11959;49.418;8.728;2023-10-31T01:09:23;0.80;;;0.50;;
23561;SDS011;11959;49.418;8.728;2023-10-31T01:11:49;0.75;;;0.50;;
23561;SDS011;11959;49.418;8.728;2023-10-31T01:14:14;1.40;;;0.50;;
23561;SDS011;11959;49.418;8.728;2023-10-31T01:16:40;0.98;;;0.57;;
23561;SDS011;11959;49.418;8.728;2023-10-31T01:19:06;3.45;;;0.55;;
23561;SDS011;11959;49.418;8.728;2023-10-31T01:21:32;2.25;;;0.60;;
23561;SDS011;11959;49.418;8.728;2023-10-31T01:23:58;1.30;;;0.50;;
23561;SDS011;11959;49.418;8.728;2023-10-31T01:26:24;1.48;;;0.65;;
23561;SDS011;11959;49.418;8.728;2023-10-31T01:28:50;0.70;;;0.50;;
23561;SDS011;11959;49.418;8.728;2023-10-31T01:31:16;0.82;;;0.60;;
23561;SDS011;11959;49.418;8.728;2023-10-31T01:33:42;1.80;;;0.50;;
23561;SDS011;11959;49.418;8.728;2023-10-31T01:36:08;1.48;;;0.43;;
23561;SDS011;11959;49.418;8.728;2023-10-31T01:38:35;0.68;;;0.50;;
23561;SDS011;11959;49.418;8.728;2023-10-31T01:41:01;1.42;;;0.60;;
23561;SDS011;11959;49.418;8.728;2023-10-31T01:43:34;2.00;;;0.52;;
23561;SDS011;11959;49.418;8.728;2023-10-31T01:46:01;2.92;;;0.90;;
23561;SDS011;11959;49.418;8.728;2023-10-31T01:48:27;1.73;;;0.47;;
23561;SDS011;11959;49.418;8.728;2023-10-31T01:50:55;1.05;;;0.57;;
23561;SDS011;11959;49.418;8.728;2023-10-31T01:53:23;2.53;;;0.90;;
23561;SDS011;11959;49.418;8.728;2023-10-31T01:55:50;1.55;;;0.80;;
23561;SDS011;11959;49.418;8.728;2023-10-31T01:58:16;0.80;;;0.60;;
23561;SDS011;11959;49.418;8.728;2023-10-31T02:00:45;1.63;;;0.80;;
23561;SDS011;11959;49.418;8.728;2023-10-31T02:03:11;0.93;;;0.73;;
23561;SDS011;11959;49.418;8.728;2023-10-31T02:05:38;1.38;;;1.00;;
23561;SDS011;11959;49.418;8.728;2023-10-31T02:08:05;1.70;;;0.77;;
23561;SDS011;11959;49.418;8.728;2023-10-31T02:10:33;2.63;;;0.77;;
23561;SDS011;11959;49.418;8.728;2023-10-31T02:13:09;2.35;;;0.93;;
23561;SDS011;11959;49.418;8.728;2023-10-31T02:15:39;2.42;;;0.70;;
23561;SDS011;11959;49.418;8.728;2023-10-31T02:18:04;1.67;;;0.75;;
23561;SDS011;11959;49.418;8.728;2023-10-31T02:20:31;3.10;;;0.80;;
23561;SDS011;11959;49.418;8.728;2023-10-31T02:22:56;1.25;;;0.65;;
23561;SDS011;11959;49.418;8.728;2023-10-31T02:25:22;1.42;;;0.50;;
23561;SDS011;11959;49.418;8.728;2023-10-31T02:27:48;1.77;;;0.75;;
23561;SDS011;11959;49.418;8.728;2023-10-31T02:30:13;0.65;;;0.50;;
23561;SDS011;11959;49.418;8.728;2023-10-31T02:32:39;1.02;;;0.60;;
23561;SDS011;11959;49.418;8.728;2023-10-31T02:35:06;1.48;;;0.85;;
23561;SDS011;11959;49.418;8.728;2023-10-31T02:37:32;1.00;;;0.90;;
23561;SDS011;11959;49.418;8.728;2023-10-31T02:39:58;2.22;;;0.80;;
23561;SDS011;11959;49.418;8.728;2023-10-31T02:42:24;1.48;;;0.82;;
23561;SDS011;11959;49.418;8.728;2023-10-31T02:44:50;2.17;;;0.90;;
23561;SDS011;11959;49.418;8.728;2023-10-31T02:47:16;2.55;;;1.10;;
23561;SDS011;11959;49.418;8.728;2023-10-31T02:49:42;1.50;;;1.05;;
23561;SDS011;11959;49.418;8.728;2023-10-31T02:52:07;3.20;;;1.00;;
23561;SDS011;11959;49.418;8.728;2023-10-31T02:54:33;2.55;;;1.30;;
23561;SDS011;11959;49.418;8.728;2023-10-31T02:56:59;4.00;;;1.70;;
23561;SDS011;11959;49.418;8.728;2023-10-31T02:59:24;1.77;;;1.45;;
23561;SDS011;11959;49.418;8.728;2023-10-31T03:01:50;1.60;;;1.50;;
23561;SDS011;11959;49.418;8.728;2023-10-31T03:04:17;5.28;;;1.73;;
23561;SDS011;11959;49.418;8.728;2023-10-31T03:06:42;1.77;;;1.50;;
23561;SDS011;11959;49.418;8.728;2023-10-31T03:09:08;1.70;;;1.33;;
23561;SDS011;11959;49.418;8.728;2023-10-31T03:11:34;2.65;;;1.40;;
23561;SDS011;11959;49.418;8.728;2023-10-31T03:13:59;3.15;;;1.67;;
23561;SDS011;11959;49.418;8.728;2023-10-31T03:16:25;1.73;;;1.13;;
23561;SDS011;11959;49.418;8.728;2023-10-31T03:18:51;2.58;;;1.42;;
23561;SDS011;11959;49.418;8.728;2023-10-31T03:21:16;3.22;;;1.42;;
23561;SDS011;11959;49.418;8.728;2023-10-31T03:23:46;1.38;;;1.08;;
23561;SDS011;11959;49.418;8.728;2023-10-31T03:26:14;2.88;;;1.20;;
23561;SDS011;11959;49.418;8.728;2023-10-31T03:28:42;3.00;;;1.27;;
23561;SDS011;11959;49.418;8.728;2023-10-31T03:31:09;2.20;;;0.93;;
23561;SDS011;11959;49.418;8.728;2023-10-31T03:33:35;1.83;;;1.27;;
23561;SDS011;11959;49.418;8.728;2023-10-31T03:36:01;1.92;;;1.10;;
23561;SDS011;11959;49.418;8.728;2023-10-31T03:38:26;3.83;;;1.27;;
23561;SDS011;11959;49.418;8.728;2023-10-31T03:40:53;2.15;;;1.00;;
23561;SDS011;11959;49.418;8.728;2023-10-31T03:43:18;2.22;;;1.10;;
23561;SDS011;11959;49.418;8.728;2023-10-31T03:45:45;1.98;;;0.90;;
23561;SDS011;11959;49.418;8.728;2023-10-31T03:48:12;1.05;;;0.82;;
23561;SDS011;11959;49.418;8.728;2023-10-31T03:50:38;2.35;;;1.00;;
23561;SDS011;11959;49.418;8.728;2023-10-31T03:53:04;3.58;;;1.10;;
23561;SDS011;11959;49.418;8.728;2023-10-31T03:55:29;2.60;;;0.90;;
23561;SDS011;11959;49.418;8.728;2023-10-31T03:57:55;1.85;;;1.40;;
23561;SDS011;11959;49.418;8.728;2023-10-31T04:00:21;1.15;;;0.90;;
23561;SDS011;11959;49.418;8.728;2023-10-31T04:02:47;3.92;;;0.90;;
23561;SDS011;11959;49.418;8.728;2023-10-31T04:05:12;2.97;;;1.23;;
23561;SDS011;11959;49.418;8.728;2023-10-31T04:07:38;2.85;;;1.15;;
23561;SDS011;11959;49.418;8.728;2023-10-31T04:10:04;2.85;;;0.90;;
23561;SDS011;11959;49.418;8.728;2023-10-31T04:12:30;3.92;;;1.20;;
23561;SDS011;11959;49.418;8.728;2023-10-31T04:14:56;2.65;;;1.20;;
23561;SDS011;11959;49.418;8.728;2023-10-31T04:17:22;1.10;;;1.00;;
23561;SDS011;11959;49.418;8.728;2023-10-31T04:19:48;2.75;;;1.38;;
23561;SDS011;11959;49.418;8.728;2023-10-31T04:22:13;3.67;;;1.65;;
23561;SDS011;11959;49.418;8.728;2023-10-31T04:24:39;2.83;;;1.52;;
23561;SDS011;11959;49.418;8.728;2023-10-31T04:27:06;2.88;;;1.20;;
23561;SDS011;11959;49.418;8.728;2023-10-31T04:29:32;2.53;;;1.40;;
23561;SDS011;11959;49.418;8.728;2023-10-31T04:31:58;2.35;;;1.25;;
23561;SDS011;11959;49.418;8.728;2023-10-31T04:34:23;4.47;;;1.10;;
23561;SDS011;11959;49.418;8.728;2023-10-31T04:36:49;2.92;;;1.10;;
23561;SDS011;11959;49.418;8.728;2023-10-31T04:39:14;2.25;;;1.00;;
23561;SDS011;11959;49.418;8.728;2023-10-31T04:41:40;4.00;;;1.40;;
23561;SDS011;11959;49.418;8.728;2023-10-31T04:44:06;1.25;;;0.90;;
23561;SDS011;11959;49.418;8.728;2023-10-31T04:46:31;1.70;;;0.90;;
23561;SDS011;11959;49.418;8.728;2023-10-31T04:48:57;2.70;;;0.95;;
23561;SDS011;11959;49.418;8.728;2023-10-31T04:51:23;1.80;;;0.80;;
23561;SDS011;11959;49.418;8.728;2023-10-31T04:53:48;1.35;;;0.90;;
23561;SDS011;11959;49.418;8.728;2023-10-31T04:56:15;1.45;;;1.05;;
23561;SDS011;11959;49.418;8.728;2023-10-31T04:58:41;1.50;;;0.77;;
23561;SDS011;11959;49.418;8.728;2023-10-31T05:01:10;1.88;;;0.73;;
23561;SDS011;11959;49.418;8.728;2023-10-31T05:03:37;4.32;;;0.73;;
23561;SDS011;11959;49.418;8.728;2023-10-31T05:06:03;1.35;;;0.77;;
23561;SDS011;11959;49.418;8.728;2023-10-31T05:08:29;3.05;;;0.75;;
23561;SDS011;11959;49.418;8.728;2023-10-31T05:10:56;1.67;;;0.90;;
23561;SDS011;11959;49.418;8.728;2023-10-31T05:13:23;4.85;;;0.90;;
23561;SDS011;11959;49.418;8.728;2023-10-31T05:15:49;2.75;;;0.77;;
23561;SDS011;11959;49.418;8.728;2023-10-31T05:18:15;1.50;;;0.70;;
23561;SDS011;11959;49.418;8.728;2023-10-31T05:20:42;3.05;;;0.90;;
23561;SDS011;11959;49.418;8.728;2023-10-31T05:23:07;3.25;;;1.02;;
23561;SDS011;11959;49.418;8.728;2023-10-31T05:25:33;2.70;;;1.33;;
23561;SDS011;11959;49.418;8.728;2023-10-31T05:27:59;4.10;;;1.20;;
23561;SDS011;11959;49.418;8.728;2023-10-31T05:30:25;3.42;;;1.20;;
23561;SDS011;11959;49.418;8.728;2023-10-31T05:32:52;2.33;;;1.40;;
23561;SDS011;11959;49.418;8.728;2023-10-31T05:35:17;2.70;;;1.40;;
23561;SDS011;11959;49.418;8.728;2023-10-31T05:37:45;2.80;;;1.50;;
23561;SDS011;11959;49.418;8.728;2023-10-31T05:40:11;2.92;;;1.40;;
23561;SDS011;11959;49.418;8.728;2023-10-31T05:42:37;3.03;;;1.48;;
23561;SDS011;11959;49.418;8.728;2023-10-31T05:45:03;2.35;;;1.27;;
23561;SDS011;11959;49.418;8.728;2023-10-31T05:47:29;2.28;;;1.30;;
23561;SDS011;11959;49.418;8.728;2023-10-31T05:49:55;3.75;;;1.40;;
23561;SDS011;11959;49.418;8.728;2023-10-31T05:52:21;3.03;;;1.20;;
23561;SDS011;11959;49.418;8.728;2023-10-31T05:54:47;3.55;;;0.90;;
23561;SDS011;11959;49.418;8.728;2023-10-31T05:57:12;3.80;;;1.25;;
23561;SDS011;11959;49.418;8.728;2023-10-31T05:59:38;2.70;;;1.10;;
23561;SDS011;11959;49.418;8.728;2023-10-31T06:02:03;2.50;;;1.10;;
23561;SDS011;11959;49.418;8.728;2023-10-31T06:04:29;3.28;;;1.00;;
23561;SDS011;11959;49.418;8.728;2023-10-31T06:06:55;1.85;;;0.85;;
23561;SDS011;11959;49.418;8.728;2023-10-31T06:09:20;2.72;;;0.85;;
23561;SDS011;11959;49.418;8.728;2023-10-31T06:11:46;4.00;;;1.10;;
23561;SDS011;11959;49.418;8.728;2023-10-31T06:14:12;2.33;;;0.98;;
23561;SDS011;11959;49.418;8.728;2023-10-31T06:16:41;2.30;;;1.00;;
23561;SDS011;11959;49.418;8.728;2023-10-31T06:19:08;2.70;;;1.00;;
23561;SDS011;11959;49.418;8.728;2023-10-31T06:21:34;4.10;;;1.17;;
23561;SDS011;11959;49.418;8.728;2023-10-31T06:24:00;1.98;;;0.90;;
23561;SDS011;11959;49.418;8.728;2023-10-31T06:26:25;5.88;;;1.30;;
23561;SDS011;11959;49.418;8.728;2023-10-31T06:28:51;1.83;;;0.85;;
23561;SDS011;11959;49.418;8.728;2023-10-31T06:31:17;2.22;;;1.05;;
23561;SDS011;11959;49.418;8.728;2023-10-31T06:33:42;3.20;;;1.00;;
23561;SDS011;11959;49.418;8.728;2023-10-31T06:36:08;4.30;;;1.27;;
23561;SDS011;11959;49.418;8.728;2023-10-31T06:38:33;3.00;;;1.30;;
23561;SDS011;11959;49.418;8.728;2023-10-31T06:40:59;4.28;;;1.35;;
23561;SDS011;11959;49.418;8.728;2023-10-31T06:43:25;2.88;;;1.67;;
23561;SDS011;11959;49.418;8.728;2023-10-31T06:45:51;6.15;;;1.70;;
23561;SDS011;11959;49.418;8.728;2023-10-31T06:48:16;3.22;;;1.40;;
23561;SDS011;11959;49.418;8.728;2023-10-31T06:50:42;4.45;;;1.63;;
23561;SDS011;11959;49.418;8.728;2023-10-31T06:53:07;3.85;;;1.30;;
23561;SDS011;11959;49.418;8.728;2023-10-31T06:55:33;2.80;;;1.38;;
23561;SDS011;11959;49.418;8.728;2023-10-31T06:57:59;4.53;;;1.63;;
23561;SDS011;11959;49.418;8.728;2023-10-31T07:00:25;2.22;;;1.40;;
23561;SDS011;11959;49.418;8.728;2023-10-31T07:02:50;3.10;;;1.23;;
23561;SDS011;11959;49.418;8.728;2023-10-31T07:05:16;4.72;;;1.35;;
23561;SDS011;11959;49.418;8.728;2023-10-31T07:07:45;6.35;;;2.28;;
23561;SDS011;11959;49.418;8.728;2023-10-31T07:10:13;4.72;;;1.70;;
23561;SDS011;11959;49.418;8.728;2023-10-31T07:12:39;2.97;;;1.30;;
23561;SDS011;11959;49.418;8.728;2023-10-31T07:15:05;3.58;;;1.35;;
23561;SDS011;11959;49.418;8.728;2023-10-31T07:17:31;4.57;;;1.63;;
23561;SDS011;11959;49.418;8.728;2023-10-31T07:19:57;3.33;;;1.40;;
23561;SDS011;11959;49.418;8.728;2023-10-31T07:22:23;2.15;;;1.40;;
23561;SDS011;11959;49.418;8.728;2023-10-31T07:24:52;3.05;;;1.52;;
23561;SDS011;11959;49.418;8.728;2023-10-31T07:27:17;2.20;;;1.10;;
23561;SDS011;11959;49.418;8.728;2023-10-31T07:29:43;4.30;;;1.42;;
23561;SDS011;11959;49.418;8.728;2023-10-31T07:32:09;4.40;;;1.38;;
23561;SDS011;11959;49.418;8.728;2023-10-31T07:34:35;4.88;;;1.60;;
23561;SDS011;11959;49.418;8.728;2023-10-31T07:37:01;3.30;;;1.60;;
23561;SDS011;11959;49.418;8.728;2023-10-31T07:39:26;2.75;;;1.20;;
23561;SDS011;11959;49.418;8.728;2023-10-31T07:41:52;6.57;;;1.48;;
23561;SDS011;11959;49.418;8.728;2023-10-31T07:44:18;4.53;;;1.38;;
23561;SDS011;11959;49.418;8.728;2023-10-31T07:46:43;4.22;;;1.20;;
23561;SDS011;11959;49.418;8.728;2023-10-31T07:49:09;3.88;;;1.15;;
23561;SDS011;11959;49.418;8.728;2023-10-31T07:51:35;4.57;;;1.35;;
23561;SDS011;11959;49.418;8.728;2023-10-31T07:54:00;4.47;;;1.70;;
23561;SDS011;11959;49.418;8.728;2023-10-31T07:56:26;3.10;;;1.25;;
23561;SDS011;11959;49.418;8.728;2023-10-31T07:58:53;3.72;;;1.70;;
23561;SDS011;11959;49.418;8.728;2023-10-31T08:01:20;3.63;;;1.40;;
23561;SDS011;11959;49.418;8.728;2023-10-31T08:03:46;4.25;;;1.58;;
23561;SDS011;11959;49.418;8.728;2023-10-31T08:06:12;3.75;;;2.03;;
23561;SDS011;11959;49.418;8.728;2023-10-31T08:08:39;5.65;;;1.98;;
23561;SDS011;11959;49.418;8.728;2023-10-31T08:11:08;4.60;;;1.70;;
23561;SDS011;11959;49.418;8.728;2023-10-31T08:13:34;3.35;;;1.70;;
23561;SDS011;11959;49.418;8.728;2023-10-31T08:16:01;3.75;;;1.60;;
23561;SDS011;11959;49.418;8.728;2023-10-31T08:18:27;2.90;;;1.63;;
23561;SDS011;11959;49.418;8.728;2023-10-31T08:20:53;2.65;;;1.60;;
23561;SDS011;11959;49.418;8.728;2023-10-31T08:23:18;3.88;;;2.25;;
23561;SDS011;11959;49.418;8.728;2023-10-31T08:25:44;4.10;;;2.28;;
23561;SDS011;11959;49.418;8.728;2023-10-31T08:28:10;3.97;;;1.85;;
23561;SDS011;11959;49.418;8.728;2023-10-31T08:30:36;4.10;;;1.60;;
23561;SDS011;11959;49.418;8.728;2023-10-31T08:33:03;4.97;;;2.47;;
23561;SDS011;11959;49.418;8.728;2023-10-31T08:35:29;5.43;;;1.60;;
23561;SDS011;11959;49.418;8.728;2023-10-31T08:37:55;3.58;;;1.73;;
23561;SDS011;11959;49.418;8.728;2023-10-31T08:40:20;2.00;;;1.48;;
23561;SDS011;11959;49.418;8.728;2023-10-31T08:42:46;3.72;;;1.83;;
23561;SDS011;11959;49.418;8.728;2023-10-31T08:45:12;4.20;;;1.80;;
23561;SDS011;11959;49.418;8.728;2023-10-31T08:47:37;3.30;;;1.30;;
23561;SDS011;11959;49.418;8.728;2023-10-31T08:50:03;2.92;;;1.40;;
23561;SDS011;11959;49.418;8.728;2023-10-31T08:52:29;2.38;;;1.30;;
23561;SDS011;11959;49.418;8.728;2023-10-31T08:54:55;4.32;;;1.17;;
23561;SDS011;11959;49.418;8.728;2023-10-31T08:57:22;3.33;;;1.80;;
23561;SDS011;11959;49.418;8.728;2023-10-31T08:59:47;3.92;;;1.50;;
23561;SDS011;11959;49.418;8.728;2023-10-31T09:02:13;4.80;;;1.45;;
23561;SDS011;11959;49.418;8.728;2023-10-31T09:04:39;3.78;;;1.60;;
23561;SDS011;11959;49.418;8.728;2023-10-31T09:07:04;4.47;;;1.55;;
23561;SDS011;11959;49.418;8.728;2023-10-31T09:09:30;1.73;;;1.20;;
23561;SDS011;11959;49.418;8.728;2023-10-31T09:11:55;4.90;;;1.60;;
23561;SDS011;11959;49.418;8.728;2023-10-31T09:14:21;3.40;;;1.50;;
23561;SDS011;11959;49.418;8.728;2023-10-31T09:16:47;5.43;;;2.00;;
23561;SDS011;11959;49.418;8.728;2023-10-31T09:19:12;4.72;;;1.80;;
23561;SDS011;11959;49.418;8.728;2023-10-31T09:21:38;3.97;;;1.50;;
23561;SDS011;11959;49.418;8.728;2023-10-31T09:24:04;4.63;;;1.55;;
23561;SDS011;11959;49.418;8.728;2023-10-31T09:26:30;4.18;;;1.70;;
23561;SDS011;11959;49.418;8.728;2023-10-31T09:28:56;5.47;;;1.60;;
23561;SDS011;11959;49.418;8.728;2023-10-31T09:31:21;3.50;;;1.67;;
23561;SDS011;11959;49.418;8.728;2023-10-31T09:33:47;4.80;;;1.77;;
23561;SDS011;11959;49.418;8.728;2023-10-31T09:36:13;4.63;;;1.50;;
23561;SDS011;11959;49.418;8.728;2023-10-31T09:38:39;4.80;;;1.52;;
23561;SDS011;11959;49.418;8.728;2023-10-31T09:41:05;4.75;;;1.48;;
23561;SDS011;11959;49.418;8.728;2023-10-31T09:43:31;4.93;;;1.70;;
23561;SDS011;11959;49.418;8.728;2023-10-31T09:45:57;6.78;;;1.60;;
23561;SDS011;11959;49.418;8.728;2023-10-31T09:48:25;4.93;;;1.80;;
23561;SDS011;11959;49.418;8.728;2023-10-31T09:50:51;6.38;;;1.83;;
23561;SDS011;11959;49.418;8.728;2023-10-31T09:53:18;4.72;;;1.38;;
23561;SDS011;11959;49.418;8.728;2023-10-31T09:55:45;5.38;;;2.00;;
23561;SDS011;11959;49.418;8.728;2023-10-31T09:58:12;4.00;;;1.80;;
23561;SDS011;11959;49.418;8.728;2023-10-31T10:00:37;5.20;;;1.48;;
23561;SDS011;11959;49.418;8.728;2023-10-31T10:03:06;6.95;;;2.00;;
23561;SDS011;11959;49.418;8.728;2023-10-31T10:05:36;3.92;;;1.83;;
23561;SDS011;11959;49.418;8.728;2023-10-31T10:08:03;3.90;;;1.38;;
23561;SDS011;11959;49.418;8.728;2023-10-31T10:10:29;4.97;;;1.67;;
23561;SDS011;11959;49.418;8.728;2023-10-31T10:12:56;5.28;;;1.40;;
23561;SDS011;11959;49.418;8.728;2023-10-31T10:15:23;3.58;;;1.20;;
23561;SDS011;11959;49.418;8.728;2023-10-31T10:17:52;4.82;;;1.75;;
23561;SDS011;11959;49.418;8.728;2023-10-31T10:20:18;3.75;;;1.52;;
23561;SDS011;11959;49.418;8.728;2023-10-31T10:22:44;5.53;;;1.20;;
23561;SDS011;11959;49.418;8.728;2023-10-31T10:25:10;4.38;;;1.17;;
23561;SDS011;11959;49.418;8.728;2023-10-31T10:27:46;5.82;;;1.42;;
23561;SDS011;11959;49.418;8.728;2023-10-31T10:30:12;4.80;;;1.20;;
23561;SDS011;11959;49.418;8.728;2023-10-31T10:32:39;6.55;;;2.13;;
23561;SDS011;11959;49.418;8.728;2023-10-31T10:35:06;2.40;;;1.48;;
23561;SDS011;11959;49.418;8.728;2023-10-31T10:37:32;3.40;;;1.13;;
23561;SDS011;11959;49.418;8.728;2023-10-31T10:40:01;6.45;;;1.70;;
23561;SDS011;11959;49.418;8.728;2023-10-31T10:42:33;6.63;;;1.83;;
23561;SDS011;11959;49.418;8.728;2023-10-31T10:45:14;4.53;;;1.35;;
23561;SDS011;11959;49.418;8.728;2023-10-31T10:47:47;3.80;;;1.15;;
23561;SDS011;11959;49.418;8.728;2023-10-31T10:50:17;5.20;;;1.60;;
23561;SDS011;11959;49.418;8.728;2023-10-31T10:52:48;3.72;;;1.10;;
23561;SDS011;11959;49.418;8.728;2023-10-31T10:55:25;3.45;;;1.27;;
23561;SDS011;11959;49.418;8.728;2023-10-31T10:57:52;5.60;;;1.00;;
23561;SDS011;11959;49.418;8.728;2023-10-31T11:00:30;4.25;;;1.25;;
23561;SDS011;11959;49.418;8.728;2023-10-31T11:02:57;4.20;;;1.20;;
23561;SDS011;11959;49.418;8.728;2023-10-31T11:05:24;4.32;;;1.30;;
23561;SDS011;11959;49.418;8.728;2023-10-31T11:07:51;4.80;;;1.35;;
23561;SDS011;11959;49.418;8.728;2023-10-31T11:10:17;2.53;;;1.10;;
23561;SDS011;11959;49.418;8.728;2023-10-31T11:12:43;4.35;;;1.13;;
23561;SDS011;11959;49.418;8.728;2023-10-31T11:15:10;7.28;;;1.58;;
23561;SDS011;11959;49.418;8.728;2023-10-31T11:17:40;6.03;;;1.40;;
23561;SDS011;11959;49.418;8.728;2023-10-31T11:20:09;4.07;;;1.30;;
23561;SDS011;11959;49.418;8.728;2023-10-31T11:22:45;5.00;;;1.35;;
23561;SDS011;11959;49.418;8.728;2023-10-31T11:25:23;3.45;;;1.00;;
23561;SDS011;11959;49.418;8.728;2023-10-31T11:27:52;6.10;;;1.42;;
23561;SDS011;11959;49.418;8.728;2023-10-31T11:32:53;5.07;;;1.27;;
23561;SDS011;11959;49.418;8.728;2023-10-31T11:35:21;2.15;;;1.08;;
23561;SDS011;11959;49.418;8.728;2023-10-31T11:37:48;5.53;;;1.30;;
23561;SDS011;11959;49.418;8.728;2023-10-31T11:40:20;4.40;;;1.20;;
23561;SDS011;11959;49.418;8.728;2023-10-31T11:42:53;5.60;;;1.38;;
23561;SDS011;11959;49.418;8.728;2023-10-31T11:47:52;4.85;;;1.42;;
23561;SDS011;11959;49.418;8.728;2023-10-31T11:50:18;3.83;;;1.10;;
23561;SDS011;11959;49.418;8.728;2023-10-31T11:52:44;3.53;;;0.80;;
23561;SDS011;11959;49.418;8.728;2023-10-31T11:55:10;3.80;;;0.90;;
23561;SDS011;11959;49.418;8.728;2023-10-31T11:57:37;5.43;;;1.00;;
23561;SDS011;11959;49.418;8.728;2023-10-31T12:00:03;2.15;;;0.90;;
23561;SDS011;11959;49.418;8.728;2023-10-31T12:02:30;4.10;;;1.25;;
23561;SDS011;11959;49.418;8.728;2023-10-31T12:05:11;5.38;;;1.20;;
23561;SDS011;11959;49.418;8.728;2023-10-31T12:07:44;7.13;;;1.17;;
23561;SDS011;11959;49.418;8.728;2023-10-31T12:10:11;1.55;;;0.82;;
23561;SDS011;11959;49.418;8.728;2023-10-31T12:12:37;3.58;;;1.00;;
23561;SDS011;11959;49.418;8.728;2023-10-31T12:15:07;6.75;;;1.20;;
23561;SDS011;11959;49.418;8.728;2023-10-31T12:17:34;4.50;;;1.40;;
23561;SDS011;11959;49.418;8.728;2023-10-31T12:20:06;4.72;;;1.15;;
23561;SDS011;11959;49.418;8.728;2023-10-31T12:22:33;3.30;;;1.10;;
23561;SDS011;11959;49.418;8.728;2023-10-31T12:25:06;3.67;;;0.80;;
23561;SDS011;11959;49.418;8.728;2023-10-31T12:30:12;4.78;;;1.15;;
23561;SDS011;11959;49.418;8.728;2023-10-31T12:32:40;5.07;;;1.27;;
23561;SDS011;11959;49.418;8.728;2023-10-31T12:35:08;2.47;;;1.05;;
23561;SDS011;11959;49.418;8.728;2023-10-31T12:37:42;6.18;;;1.10;;
23561;SDS011;11959;49.418;8.728;2023-10-31T12:40:10;3.22;;;1.20;;
23561;SDS011;11959;49.418;8.728;2023-10-31T12:42:37;6.15;;;1.17;;
23561;SDS011;11959;49.418;8.728;2023-10-31T12:45:03;4.18;;;0.82;;
23561;SDS011;11959;49.418;8.728;2023-10-31T12:47:30;2.97;;;0.68;;
23561;SDS011;11959;49.418;8.728;2023-10-31T12:50:12;3.30;;;0.80;;
23561;SDS011;11959;49.418;8.728;2023-10-31T12:55:14;2.30;;;0.80;;
23561;SDS011;11959;49.418;8.728;2023-10-31T12:57:41;2.72;;;1.00;;
23561;SDS011;11959;49.418;8.728;2023-10-31T13:00:07;3.80;;;0.88;;
23561;SDS011;11959;49.418;8.728;2023-10-31T13:02:36;2.45;;;0.90;;
23561;SDS011;11959;49.418;8.728;2023-10-31T13:05:08;3.38;;;0.85;;
23561;SDS011;11959;49.418;8.728;2023-10-31T13:07:38;2.47;;;1.10;;
23561;SDS011;11959;49.418;8.728;2023-10-31T13:10:06;3.08;;;0.98;;
23561;SDS011;11959;49.418;8.728;2023-10-31T13:12:34;2.50;;;0.70;;
23561;SDS011;11959;49.418;8.728;2023-10-31T13:15:00;3.47;;;0.90;;
23561;SDS011;11959;49.418;8.728;2023-10-31T13:17:26;1.35;;;0.70;;
23561;SDS011;11959;49.418;8.728;2023-10-31T13:19:52;4.13;;;1.00;;
23561;SDS011;11959;49.418;8.728;2023-10-31T13:22:18;2.90;;;0.85;;
23561;SDS011;11959;49.418;8.728;2023-10-31T13:24:44;3.90;;;1.00;;
23561;SDS011;11959;49.418;8.728;2023-10-31T13:27:10;3.22;;;1.17;;
23561;SDS011;11959;49.418;8.728;2023-10-31T13:29:41;2.58;;;0.90;;
23561;SDS011;11959;49.418;8.728;2023-10-31T13:32:06;2.17;;;0.80;;
23561;SDS011;11959;49.418;8.728;2023-10-31T13:34:33;2.05;;;0.82;;
23561;SDS011;11959;49.418;8.728;2023-10-31T13:36:59;5.10;;;1.20;;
23561;SDS011;11959;49.418;8.728;2023-10-31T13:39:25;2.28;;;1.05;;
23561;SDS011;11959;49.418;8.728;2023-10-31T13:41:50;1.48;;;0.65;;
23561;SDS011;11959;49.418;8.728;2023-10-31T13:44:16;3.15;;;0.80;;
23561;SDS011;11959;49.418;8.728;2023-10-31T13:46:42;4.95;;;1.13;;
23561;SDS011;11959;49.418;8.728;2023-10-31T13:49:08;2.63;;;0.95;;
23561;SDS011;11959;49.418;8.728;2023-10-31T13:51:34;2.88;;;1.00;;
23561;SDS011;11959;49.418;8.728;2023-10-31T13:54:01;2.30;;;0.98;;
23561;SDS011;11959;49.418;8.728;2023-10-31T13:56:27;3.20;;;1.10;;
23561;SDS011;11959;49.418;8.728;2023-10-31T13:58:53;2.67;;;0.70;;
23561;SDS011;11959;49.418;8.728;2023-10-31T14:01:18;2.00;;;0.77;;
23561;SDS011;11959;49.418;8.728;2023-10-31T14:03:49;2.13;;;0.80;;
23561;SDS011;11959;49.418;8.728;2023-10-31T14:06:15;3.40;;;0.90;;
23561;SDS011;11959;49.418;8.728;2023-10-31T14:08:43;3.33;;;1.02;;
23561;SDS011;11959;49.418;8.728;2023-10-31T14:11:09;3.92;;;0.93;;
23561;SDS011;11959;49.418;8.728;2023-10-31T14:13:37;4.38;;;0.80;;
23561;SDS011;11959;49.418;8.728;2023-10-31T14:16:03;2.85;;;0.90;;
23561;SDS011;11959;49.418;8.728;2023-10-31T14:18:29;3.15;;;1.00;;
23561;SDS011;11959;49.418;8.728;2023-10-31T14:20:56;1.80;;;0.70;;
23561;SDS011;11959;49.418;8.728;2023-10-31T14:23:21;3.30;;;0.90;;
23561;SDS011;11959;49.418;8.728;2023-10-31T14:25:47;2.35;;;1.08;;
23561;SDS011;11959;49.418;8.728;2023-10-31T14:28:13;2.80;;;0.93;;
23561;SDS011;11959;49.418;8.728;2023-10-31T14:30:38;2.10;;;0.90;;
23561;SDS011;11959;49.418;8.728;2023-10-31T14:33:04;3.70;;;0.85;;
23561;SDS011;11959;49.418;8.728;2023-10-31T14:35:29;2.05;;;0.80;;
23561;SDS011;11959;49.418;8.728;2023-10-31T14:37:55;2.45;;;1.17;;
23561;SDS011;11959;49.418;8.728;2023-10-31T14:40:21;1.63;;;0.98;;
23561;SDS011;11959;49.418;8.728;2023-10-31T14:42:46;2.17;;;0.98;;
23561;SDS011;11959;49.418;8.728;2023-10-31T14:45:12;2.67;;;1.10;;
23561;SDS011;11959;49.418;8.728;2023-10-31T14:47:38;4.18;;;1.15;;
23561;SDS011;11959;49.418;8.728;2023-10-31T14:50:03;2.47;;;1.05;;
23561;SDS011;11959;49.418;8.728;2023-10-31T14:52:29;2.60;;;1.00;;
23561;SDS011;11959;49.418;8.728;2023-10-31T14:54:55;2.28;;;1.05;;